sensor_id;sensor_type;location;lat;lon;timestamp;pressure;altitude;pressure_sealevel;temperature;humidity
25420;BME280;13354;48.174;11.566;2022-11-23T00:00:26;94479.94;;;6.05;86.42
25420;BME280;13354;48.174;11.566;2022-11-23T00:02:57;94479.09;;;5.98;86.82
25420;BME280;13354;48.174;11.566;2022-11-23T00:05:25;94480.69;;;5.99;87.26
25420;BME280;13354;48.174;11.566;2022-11-23T00:07:50;94486.81;;;6.07;87.28
25420;BME280;13354;48.174;11.566;2022-11-23T00:10:16;94485.41;;;6.04;87.55
25420;BME280;13354;48.174;11.566;2022-11-23T00:12:42;94488.44;;;6.08;87.57
25420;BME280;13354;48.174;11.566;2022-11-23T00:15:08;94485.34;;;5.97;88.16
25420;BME280;13354;48.174;11.566;2022-11-23T00:17:34;94483.03;;;5.88;88.79
25420;BME280;13354;48.174;11.566;2022-11-23T00:19:59;94484.03;;;5.87;88.85
25420;BME280;13354;48.174;11.566;2022-11-23T00:22:25;94482.84;;;5.89;89.30
25420;BME280;13354;48.174;11.566;2022-11-23T00:24:50;94482.16;;;5.80;89.90
25420;BME280;13354;48.174;11.566;2022-11-23T00:27:16;94482.16;;;5.80;89.57
25420;BME280;13354;48.174;11.566;2022-11-23T00:29:41;94483.50;;;5.70;89.56
25420;BME280;13354;48.174;11.566;2022-11-23T00:32:07;94479.31;;;5.75;89.67
25420;BME280;13354;48.174;11.566;2022-11-23T00:34:33;94485.97;;;5.78;90.37
25420;BME280;13354;48.174;11.566;2022-11-23T00:36:58;94482.22;;;5.87;90.50
25420;BME280;13354;48.174;11.566;2022-11-23T00:39:23;94479.84;;;5.92;89.72
25420;BME280;13354;48.174;11.566;2022-11-23T00:41:55;94479.22;;;5.90;89.48
25420;BME280;13354;48.174;11.566;2022-11-23T00:44:20;94479.59;;;5.87;89.99
25420;BME280;13354;48.174;11.566;2022-11-23T00:46:45;94484.03;;;5.87;90.98
25420;BME280;13354;48.174;11.566;2022-11-23T00:49:11;94481.78;;;5.84;91.40
25420;BME280;13354;48.174;11.566;2022-11-23T00:51:37;94477.94;;;6.14;90.76
25420;BME280;13354;48.174;11.566;2022-11-23T00:54:04;94474.47;;;6.00;90.27
25420;BME280;13354;48.174;11.566;2022-11-23T00:56:31;94474.69;;;6.05;90.35
25420;BME280;13354;48.174;11.566;2022-11-23T00:58:58;94478.88;;;6.00;90.02
25420;BME280;13354;48.174;11.566;2022-11-23T01:01:26;94475.50;;;6.06;90.13
25420;BME280;13354;48.174;11.566;2022-11-23T01:03:54;94470.28;;;6.13;89.52
25420;BME280;13354;48.174;11.566;2022-11-23T01:06:23;94475.31;;;6.08;89.17
25420;BME280;13354;48.174;11.566;2022-11-23T01:08:54;94474.75;;;5.91;90.45
25420;BME280;13354;48.174;11.566;2022-11-23T01:11:21;94473.63;;;6.00;90.88
25420;BME280;13354;48.174;11.566;2022-11-23T01:13:51;94474.72;;;6.12;90.32
25420;BME280;13354;48.174;11.566;2022-11-23T01:16:28;94479.56;;;6.09;89.78
25420;BME280;13354;48.174;11.566;2022-11-23T01:18:55;94477.47;;;5.97;89.78
25420;BME280;13354;48.174;11.566;2022-11-23T01:21:21;94476.53;;;5.84;89.76
25420;BME280;13354;48.174;11.566;2022-11-23T01:23:47;94481.91;;;5.97;90.27
25420;BME280;13354;48.174;11.566;2022-11-23T01:26:13;94480.31;;;6.02;89.02
25420;BME280;13354;48.174;11.566;2022-11-23T01:28:39;94482.00;;;6.17;87.52
25420;BME280;13354;48.174;11.566;2022-11-23T01:31:10;94484.19;;;6.07;86.61
25420;BME280;13354;48.174;11.566;2022-11-23T01:33:51;94482.19;;;6.09;86.59
25420;BME280;13354;48.174;11.566;2022-11-23T01:36:19;94490.91;;;6.16;85.45
25420;BME280;13354;48.174;11.566;2022-11-23T01:38:46;94490.66;;;6.04;86.78
25420;BME280;13354;48.174;11.566;2022-11-23T01:41:13;94486.22;;;6.11;86.99
25420;BME280;13354;48.174;11.566;2022-11-23T01:43:39;94486.75;;;6.00;87.72
25420;BME280;13354;48.174;11.566;2022-11-23T01:46:05;94488.25;;;6.09;86.54
25420;BME280;13354;48.174;11.566;2022-11-23T01:51:04;94496.88;;;6.03;87.19
25420;BME280;13354;48.174;11.566;2022-11-23T01:53:31;94496.31;;;6.08;87.03
25420;BME280;13354;48.174;11.566;2022-11-23T01:56:01;94493.28;;;6.11;87.09
25420;BME280;13354;48.174;11.566;2022-11-23T01:58:31;94501.84;;;6.19;86.29
25420;BME280;13354;48.174;11.566;2022-11-23T02:00:57;94508.72;;;6.20;85.44
25420;BME280;13354;48.174;11.566;2022-11-23T02:03:23;94503.47;;;6.20;85.59
25420;BME280;13354;48.174;11.566;2022-11-23T02:05:53;94508.06;;;6.12;85.75
25420;BME280;13354;48.174;11.566;2022-11-23T02:08:24;94510.88;;;6.10;85.85
25420;BME280;13354;48.174;11.566;2022-11-23T02:10:50;94509.06;;;6.11;85.75
25420;BME280;13354;48.174;11.566;2022-11-23T02:13:16;94509.72;;;5.91;86.42
25420;BME280;13354;48.174;11.566;2022-11-23T02:15:42;94516.50;;;6.07;86.48
25420;BME280;13354;48.174;11.566;2022-11-23T02:18:28;94504.59;;;6.04;86.32
25420;BME280;13354;48.174;11.566;2022-11-23T02:21:06;94502.78;;;6.05;86.04
25420;BME280;13354;48.174;11.566;2022-11-23T02:24:05;94503.66;;;5.91;86.42
25420;BME280;13354;48.174;11.566;2022-11-23T02:26:33;94506.84;;;6.08;85.89
25420;BME280;13354;48.174;11.566;2022-11-23T02:29:05;94503.03;;;5.89;85.85
25420;BME280;13354;48.174;11.566;2022-11-23T02:31:33;94499.78;;;5.87;86.33
25420;BME280;13354;48.174;11.566;2022-11-23T02:33:58;94495.94;;;5.82;86.89
25420;BME280;13354;48.174;11.566;2022-11-23T02:36:39;94497.00;;;5.67;87.47
25420;BME280;13354;48.174;11.566;2022-11-23T02:39:52;94504.56;;;5.76;87.19
25420;BME280;13354;48.174;11.566;2022-11-23T02:42:04;94506.22;;;5.84;86.33
25420;BME280;13354;48.174;11.566;2022-11-23T02:44:52;94504.53;;;5.98;85.96
25420;BME280;13354;48.174;11.566;2022-11-23T02:47:19;94499.50;;;5.75;86.27
25420;BME280;13354;48.174;11.566;2022-11-23T02:49:46;94501.28;;;5.68;86.83
25420;BME280;13354;48.174;11.566;2022-11-23T02:52:11;94498.66;;;5.68;86.71
25420;BME280;13354;48.174;11.566;2022-11-23T02:54:37;94497.94;;;5.52;87.62
25420;BME280;13354;48.174;11.566;2022-11-23T02:57:04;94495.03;;;5.47;88.22
25420;BME280;13354;48.174;11.566;2022-11-23T02:59:29;94501.47;;;5.45;88.01
25420;BME280;13354;48.174;11.566;2022-11-23T03:01:57;94505.84;;;5.59;88.05
25420;BME280;13354;48.174;11.566;2022-11-23T03:04:23;94499.16;;;5.56;87.50
25420;BME280;13354;48.174;11.566;2022-11-23T03:06:48;94503.31;;;5.72;86.78
25420;BME280;13354;48.174;11.566;2022-11-23T03:09:16;94501.00;;;5.63;85.99
25420;BME280;13354;48.174;11.566;2022-11-23T03:11:42;94504.50;;;5.70;85.87
25420;BME280;13354;48.174;11.566;2022-11-23T03:14:07;94504.78;;;5.53;86.17
25420;BME280;13354;48.174;11.566;2022-11-23T03:16:33;94503.97;;;5.53;86.54
25420;BME280;13354;48.174;11.566;2022-11-23T03:18:59;94513.69;;;5.80;85.06
25420;BME280;13354;48.174;11.566;2022-11-23T03:21:24;94505.72;;;5.67;85.09
25420;BME280;13354;48.174;11.566;2022-11-23T03:23:50;94510.53;;;5.64;85.12
25420;BME280;13354;48.174;11.566;2022-11-23T03:26:16;94517.13;;;5.60;85.05
25420;BME280;13354;48.174;11.566;2022-11-23T03:28:47;94512.59;;;5.68;84.88
25420;BME280;13354;48.174;11.566;2022-11-23T03:31:13;94509.66;;;5.56;84.81
25420;BME280;13354;48.174;11.566;2022-11-23T03:33:39;94508.13;;;5.69;84.36
25420;BME280;13354;48.174;11.566;2022-11-23T03:36:05;94508.28;;;5.61;84.78
25420;BME280;13354;48.174;11.566;2022-11-23T03:38:30;94510.63;;;5.49;84.60
25420;BME280;13354;48.174;11.566;2022-11-23T03:40:56;94513.47;;;5.54;84.47
25420;BME280;13354;48.174;11.566;2022-11-23T03:43:21;94512.72;;;5.60;84.45
25420;BME280;13354;48.174;11.566;2022-11-23T03:45:48;94510.03;;;5.53;84.86
25420;BME280;13354;48.174;11.566;2022-11-23T03:48:14;94510.06;;;5.32;86.36
25420;BME280;13354;48.174;11.566;2022-11-23T03:50:44;94510.84;;;5.54;85.95
25420;BME280;13354;48.174;11.566;2022-11-23T03:53:13;94500.72;;;5.51;85.61
25420;BME280;13354;48.174;11.566;2022-11-23T03:55:39;94511.06;;;5.31;85.92
25420;BME280;13354;48.174;11.566;2022-11-23T03:58:16;94505.59;;;5.11;87.32
25420;BME280;13354;48.174;11.566;2022-11-23T04:00:42;94504.13;;;5.02;88.52
25420;BME280;13354;48.174;11.566;2022-11-23T04:03:08;94502.00;;;5.12;88.24
25420;BME280;13354;48.174;11.566;2022-11-23T04:05:39;94498.97;;;5.37;86.77
25420;BME280;13354;48.174;11.566;2022-11-23T04:08:04;94489.50;;;5.36;86.13
25420;BME280;13354;48.174;11.566;2022-11-23T04:10:30;94501.97;;;5.55;84.97
25420;BME280;13354;48.174;11.566;2022-11-23T04:13:01;94500.72;;;5.29;85.96
25420;BME280;13354;48.174;11.566;2022-11-23T04:15:40;94492.13;;;5.36;85.63
25420;BME280;13354;48.174;11.566;2022-11-23T04:18:34;94500.34;;;5.32;85.81
25420;BME280;13354;48.174;11.566;2022-11-23T04:21:00;94497.06;;;5.45;85.50
25420;BME280;13354;48.174;11.566;2022-11-23T04:23:25;94493.22;;;5.48;85.36
25420;BME280;13354;48.174;11.566;2022-11-23T04:25:54;94497.38;;;5.36;85.42
25420;BME280;13354;48.174;11.566;2022-11-23T04:28:25;94501.31;;;5.25;85.85
25420;BME280;13354;48.174;11.566;2022-11-23T04:30:51;94492.00;;;5.22;86.00
25420;BME280;13354;48.174;11.566;2022-11-23T04:33:16;94492.81;;;5.23;85.96
25420;BME280;13354;48.174;11.566;2022-11-23T04:35:42;94494.25;;;5.25;86.49
25420;BME280;13354;48.174;11.566;2022-11-23T04:38:07;94493.63;;;5.23;86.57
25420;BME280;13354;48.174;11.566;2022-11-23T04:40:36;94493.44;;;5.25;85.85
25420;BME280;13354;48.174;11.566;2022-11-23T04:43:01;94498.91;;;5.30;85.86
25420;BME280;13354;48.174;11.566;2022-11-23T04:45:30;94491.75;;;5.17;86.35
25420;BME280;13354;48.174;11.566;2022-11-23T04:48:01;94497.06;;;5.24;85.72
25420;BME280;13354;48.174;11.566;2022-11-23T04:50:30;94496.44;;;5.22;85.58
25420;BME280;13354;48.174;11.566;2022-11-23T04:53:00;94496.94;;;5.11;86.47
25420;BME280;13354;48.174;11.566;2022-11-23T04:55:28;94488.00;;;5.05;87.43
25420;BME280;13354;48.174;11.566;2022-11-23T04:57:54;94496.63;;;4.99;88.06
25420;BME280;13354;48.174;11.566;2022-11-23T05:00:29;94498.56;;;4.90;88.93
25420;BME280;13354;48.174;11.566;2022-11-23T05:02:58;94491.41;;;4.84;89.12
25420;BME280;13354;48.174;11.566;2022-11-23T05:05:30;94483.34;;;4.85;89.39
25420;BME280;13354;48.174;11.566;2022-11-23T05:07:56;94492.41;;;4.83;89.89
25420;BME280;13354;48.174;11.566;2022-11-23T05:10:22;94491.22;;;4.85;90.62
25420;BME280;13354;48.174;11.566;2022-11-23T05:12:47;94491.66;;;4.89;90.69
25420;BME280;13354;48.174;11.566;2022-11-23T05:15:16;94479.94;;;5.06;90.02
25420;BME280;13354;48.174;11.566;2022-11-23T05:17:47;94480.75;;;5.07;89.84
25420;BME280;13354;48.174;11.566;2022-11-23T05:20:13;94478.25;;;5.20;89.65
25420;BME280;13354;48.174;11.566;2022-11-23T05:22:38;94471.63;;;5.24;88.54
25420;BME280;13354;48.174;11.566;2022-11-23T05:25:04;94474.31;;;5.31;87.86
25420;BME280;13354;48.174;11.566;2022-11-23T05:27:33;94474.31;;;5.31;87.09
25420;BME280;13354;48.174;11.566;2022-11-23T05:29:59;94475.25;;;5.23;87.63
25420;BME280;13354;48.174;11.566;2022-11-23T05:32:30;94482.63;;;5.35;87.20
25420;BME280;13354;48.174;11.566;2022-11-23T05:35:00;94470.81;;;5.45;86.36
25420;BME280;13354;48.174;11.566;2022-11-23T05:37:26;94469.00;;;5.46;86.22
25420;BME280;13354;48.174;11.566;2022-11-23T05:39:51;94476.22;;;5.44;85.93
25420;BME280;13354;48.174;11.566;2022-11-23T05:42:25;94472.38;;;5.40;86.16
25420;BME280;13354;48.174;11.566;2022-11-23T05:44:50;94472.06;;;5.28;86.51
25420;BME280;13354;48.174;11.566;2022-11-23T05:47:16;94467.41;;;5.23;87.33
25420;BME280;13354;48.174;11.566;2022-11-23T05:49:44;94480.63;;;5.15;88.17
25420;BME280;13354;48.174;11.566;2022-11-23T05:52:12;94476.13;;;5.09;88.80
25420;BME280;13354;48.174;11.566;2022-11-23T05:54:38;94474.94;;;5.12;89.26
25420;BME280;13354;48.174;11.566;2022-11-23T05:57:03;94478.56;;;5.32;88.73
25420;BME280;13354;48.174;11.566;2022-11-23T05:59:29;94475.22;;;5.45;87.19
25420;BME280;13354;48.174;11.566;2022-11-23T06:01:54;94474.22;;;5.67;85.29
25420;BME280;13354;48.174;11.566;2022-11-23T06:04:22;94475.25;;;5.73;84.79
25420;BME280;13354;48.174;11.566;2022-11-23T06:06:48;94468.19;;;5.45;85.74
25420;BME280;13354;48.174;11.566;2022-11-23T06:09:13;94458.66;;;5.44;86.17
25420;BME280;13354;48.174;11.566;2022-11-23T06:11:39;94468.13;;;5.39;87.16
25420;BME280;13354;48.174;11.566;2022-11-23T06:14:04;94466.09;;;5.41;87.09
25420;BME280;13354;48.174;11.566;2022-11-23T06:16:30;94474.25;;;5.46;87.30
25420;BME280;13354;48.174;11.566;2022-11-23T06:18:56;94467.78;;;5.48;86.85
25420;BME280;13354;48.174;11.566;2022-11-23T06:21:21;94468.69;;;5.34;87.37
25420;BME280;13354;48.174;11.566;2022-11-23T06:23:47;94473.50;;;5.30;88.29
25420;BME280;13354;48.174;11.566;2022-11-23T06:26:12;94469.63;;;5.26;87.93
25420;BME280;13354;48.174;11.566;2022-11-23T06:28:38;94470.19;;;5.22;88.62
25420;BME280;13354;48.174;11.566;2022-11-23T06:31:05;94474.31;;;5.31;88.67
25420;BME280;13354;48.174;11.566;2022-11-23T06:33:50;94468.88;;;5.32;88.39
25420;BME280;13354;48.174;11.566;2022-11-23T06:36:59;94471.00;;;5.22;88.40
25420;BME280;13354;48.174;11.566;2022-11-23T06:39:35;94477.56;;;5.33;88.49
25420;BME280;13354;48.174;11.566;2022-11-23T06:42:00;94477.00;;;5.38;87.64
25420;BME280;13354;48.174;11.566;2022-11-23T06:44:26;94476.66;;;5.47;87.49
25420;BME280;13354;48.174;11.566;2022-11-23T06:46:51;94483.84;;;5.60;86.52
25420;BME280;13354;48.174;11.566;2022-11-23T06:49:17;94485.72;;;5.45;87.40
25420;BME280;13354;48.174;11.566;2022-11-23T06:51:50;94484.75;;;5.46;87.69
25420;BME280;13354;48.174;11.566;2022-11-23T06:54:15;94497.44;;;5.42;88.16
25420;BME280;13354;48.174;11.566;2022-11-23T06:56:41;94485.53;;;5.46;88.27
25420;BME280;13354;48.174;11.566;2022-11-23T06:59:07;94491.91;;;5.37;88.79
25420;BME280;13354;48.174;11.566;2022-11-23T07:01:32;94490.06;;;5.59;87.33
25420;BME280;13354;48.174;11.566;2022-11-23T07:03:58;94497.78;;;5.61;87.27
25420;BME280;13354;48.174;11.566;2022-11-23T07:06:23;94496.84;;;5.47;87.69
25420;BME280;13354;48.174;11.566;2022-11-23T07:08:49;94494.28;;;5.53;88.37
25420;BME280;13354;48.174;11.566;2022-11-23T07:11:35;94508.53;;;5.44;88.50
25420;BME280;13354;48.174;11.566;2022-11-23T07:14:00;94511.72;;;5.40;88.44
25420;BME280;13354;48.174;11.566;2022-11-23T07:16:26;94513.34;;;5.41;89.11
25420;BME280;13354;48.174;11.566;2022-11-23T07:18:51;94515.81;;;5.42;88.68
25420;BME280;13354;48.174;11.566;2022-11-23T07:21:17;94511.88;;;5.60;87.94
25420;BME280;13354;48.174;11.566;2022-11-23T07:24:03;94511.50;;;5.63;87.73
25420;BME280;13354;48.174;11.566;2022-11-23T07:26:28;94516.03;;;5.69;86.86
25420;BME280;13354;48.174;11.566;2022-11-23T07:28:54;94514.91;;;5.56;86.26
25420;BME280;13354;48.174;11.566;2022-11-23T07:31:19;94519.84;;;5.45;87.42
25420;BME280;13354;48.174;11.566;2022-11-23T07:33:45;94525.28;;;5.43;88.00
25420;BME280;13354;48.174;11.566;2022-11-23T07:36:14;94525.88;;;5.67;88.07
25420;BME280;13354;48.174;11.566;2022-11-23T07:38:39;94526.06;;;5.87;86.96
25420;BME280;13354;48.174;11.566;2022-11-23T07:41:05;94522.81;;;5.63;87.21
25420;BME280;13354;48.174;11.566;2022-11-23T07:43:36;94530.97;;;5.68;87.37
25420;BME280;13354;48.174;11.566;2022-11-23T07:46:07;94526.31;;;5.70;87.49
25420;BME280;13354;48.174;11.566;2022-11-23T07:48:39;94532.34;;;5.64;86.77
25420;BME280;13354;48.174;11.566;2022-11-23T07:51:04;94532.94;;;5.66;87.07
25420;BME280;13354;48.174;11.566;2022-11-23T07:53:30;94540.59;;;5.61;86.96
25420;BME280;13354;48.174;11.566;2022-11-23T07:55:56;94542.03;;;5.64;86.61
25420;BME280;13354;48.174;11.566;2022-11-23T07:58:23;94546.94;;;5.95;85.94
25420;BME280;13354;48.174;11.566;2022-11-23T08:00:48;94542.00;;;5.85;84.54
25420;BME280;13354;48.174;11.566;2022-11-23T08:03:14;94548.03;;;6.07;84.65
25420;BME280;13354;48.174;11.566;2022-11-23T08:05:49;94553.28;;;5.79;84.87
25420;BME280;13354;48.174;11.566;2022-11-23T08:08:15;94546.25;;;5.86;85.22
25420;BME280;13354;48.174;11.566;2022-11-23T08:10:40;94548.31;;;5.91;84.77
25420;BME280;13354;48.174;11.566;2022-11-23T08:13:06;94545.13;;;5.95;84.43
25420;BME280;13354;48.174;11.566;2022-11-23T08:15:32;94549.00;;;5.99;83.48
25420;BME280;13354;48.174;11.566;2022-11-23T08:18:01;94553.19;;;6.22;82.83
25420;BME280;13354;48.174;11.566;2022-11-23T08:20:28;94560.31;;;6.00;83.08
25420;BME280;13354;48.174;11.566;2022-11-23T08:22:55;94558.84;;;6.19;82.39
25420;BME280;13354;48.174;11.566;2022-11-23T08:25:22;94552.81;;;6.25;82.17
25420;BME280;13354;48.174;11.566;2022-11-23T08:27:47;94558.00;;;6.12;82.10
25420;BME280;13354;48.174;11.566;2022-11-23T08:30:18;94561.28;;;6.20;82.07
25420;BME280;13354;48.174;11.566;2022-11-23T08:32:43;94564.91;;;6.19;81.27
25420;BME280;13354;48.174;11.566;2022-11-23T08:35:09;94559.72;;;6.33;79.94
25420;BME280;13354;48.174;11.566;2022-11-23T08:37:34;94553.25;;;6.28;80.48
25420;BME280;13354;48.174;11.566;2022-11-23T08:39:59;94543.84;;;6.47;80.50
25420;BME280;13354;48.174;11.566;2022-11-23T08:42:25;94546.47;;;6.47;79.38
25420;BME280;13354;48.174;11.566;2022-11-23T08:44:50;94547.53;;;6.53;79.91
25420;BME280;13354;48.174;11.566;2022-11-23T08:47:15;94541.81;;;6.91;79.32
25420;BME280;13354;48.174;11.566;2022-11-23T08:49:41;94543.94;;;7.15;79.96
25420;BME280;13354;48.174;11.566;2022-11-23T08:52:06;94551.84;;;7.29;76.87
25420;BME280;13354;48.174;11.566;2022-11-23T08:54:32;94535.25;;;7.35;75.64
25420;BME280;13354;48.174;11.566;2022-11-23T08:56:57;94548.63;;;7.40;75.73
25420;BME280;13354;48.174;11.566;2022-11-23T08:59:22;94553.09;;;7.46;76.85
25420;BME280;13354;48.174;11.566;2022-11-23T09:01:48;94554.13;;;7.52;75.27
25420;BME280;13354;48.174;11.566;2022-11-23T09:04:13;94552.09;;;7.54;74.09
25420;BME280;13354;48.174;11.566;2022-11-23T09:06:39;94554.31;;;7.43;77.31
25420;BME280;13354;48.174;11.566;2022-11-23T09:09:05;94546.63;;;7.48;77.26
25420;BME280;13354;48.174;11.566;2022-11-23T09:11:34;94545.63;;;7.49;77.39
25420;BME280;13354;48.174;11.566;2022-11-23T09:14:10;94545.63;;;7.69;75.93
25420;BME280;13354;48.174;11.566;2022-11-23T09:16:43;94544.41;;;7.65;73.94
25420;BME280;13354;48.174;11.566;2022-11-23T09:19:12;94549.28;;;7.68;73.79
25420;BME280;13354;48.174;11.566;2022-11-23T09:21:37;94548.09;;;7.78;73.21
25420;BME280;13354;48.174;11.566;2022-11-23T09:24:04;94542.81;;;7.78;72.11
25420;BME280;13354;48.174;11.566;2022-11-23T09:26:29;94542.38;;;7.87;71.95
25420;BME280;13354;48.174;11.566;2022-11-23T09:28:58;94541.59;;;7.80;71.18
25420;BME280;13354;48.174;11.566;2022-11-23T09:31:23;94543.59;;;7.91;70.51
25420;BME280;13354;48.174;11.566;2022-11-23T09:33:51;94548.69;;;7.86;71.21
25420;BME280;13354;48.174;11.566;2022-11-23T09:36:17;94541.59;;;7.80;72.08
25420;BME280;13354;48.174;11.566;2022-11-23T09:38:43;94538.94;;;7.87;71.80
25420;BME280;13354;48.174;11.566;2022-11-23T09:44:34;94532.81;;;8.46;70.18
25420;BME280;13354;48.174;11.566;2022-11-23T09:47:19;94529.47;;;8.84;69.79
25420;BME280;13354;48.174;11.566;2022-11-23T09:52:33;94523.19;;;9.23;67.02
25420;BME280;13354;48.174;11.566;2022-11-23T09:55:04;94528.44;;;9.30;65.56
25420;BME280;13354;48.174;11.566;2022-11-23T09:57:33;94532.50;;;9.32;65.79
25420;BME280;13354;48.174;11.566;2022-11-23T10:00:05;94528.66;;;9.60;65.05
25420;BME280;13354;48.174;11.566;2022-11-23T10:02:37;94525.53;;;9.38;64.25
25420;BME280;13354;48.174;11.566;2022-11-23T10:05:05;94520.84;;;9.72;63.39
25420;BME280;13354;48.174;11.566;2022-11-23T10:07:48;94524.44;;;9.84;64.92
25420;BME280;13354;48.174;11.566;2022-11-23T10:15:44;94521.84;;;10.27;60.82
25420;BME280;13354;48.174;11.566;2022-11-23T10:18:44;94512.47;;;10.50;61.26
25420;BME280;13354;48.174;11.566;2022-11-23T10:24:17;94512.09;;;10.83;59.52
25420;BME280;13354;48.174;11.566;2022-11-23T10:26:48;94510.38;;;11.07;58.38
25420;BME280;13354;48.174;11.566;2022-11-23T10:31:46;94501.84;;;11.35;58.89
25420;BME280;13354;48.174;11.566;2022-11-23T10:34:22;94496.63;;;11.58;56.97
25420;BME280;13354;48.174;11.566;2022-11-23T10:36:50;94494.06;;;11.52;55.86
25420;BME280;13354;48.174;11.566;2022-11-23T10:39:21;94489.63;;;11.76;54.78
25420;BME280;13354;48.174;11.566;2022-11-23T10:41:48;94486.59;;;11.60;56.95
25420;BME280;13354;48.174;11.566;2022-11-23T10:44:25;94483.50;;;11.64;55.79
25420;BME280;13354;48.174;11.566;2022-11-23T10:46:52;94479.75;;;11.95;54.16
25420;BME280;13354;48.174;11.566;2022-11-23T10:49:26;94481.25;;;12.14;53.58
25420;BME280;13354;48.174;11.566;2022-11-23T10:51:57;94488.41;;;12.25;53.71
25420;BME280;13354;48.174;11.566;2022-11-23T10:54:26;94481.78;;;11.81;53.32
25420;BME280;13354;48.174;11.566;2022-11-23T10:56:52;94488.41;;;11.48;52.66
25420;BME280;13354;48.174;11.566;2022-11-23T10:59:36;94493.75;;;11.30;54.04
25420;BME280;13354;48.174;11.566;2022-11-23T11:02:10;94483.84;;;11.67;53.77
25420;BME280;13354;48.174;11.566;2022-11-23T11:04:37;94478.59;;;11.91;53.95
25420;BME280;13354;48.174;11.566;2022-11-23T11:09:41;94480.47;;;12.37;52.20
25420;BME280;13354;48.174;11.566;2022-11-23T11:12:15;94473.38;;;12.66;51.84
25420;BME280;13354;48.174;11.566;2022-11-23T11:14:57;94476.31;;;12.93;50.29
25420;BME280;13354;48.174;11.566;2022-11-23T11:17:25;94473.69;;;12.81;51.49
25420;BME280;13354;48.174;11.566;2022-11-23T11:19:52;94474.72;;;12.80;50.29
25420;BME280;13354;48.174;11.566;2022-11-23T11:22:27;94475.59;;;12.22;51.09
25420;BME280;13354;48.174;11.566;2022-11-23T11:24:53;94471.63;;;11.78;51.72
25420;BME280;13354;48.174;11.566;2022-11-23T11:27:23;94479.47;;;11.61;52.51
25420;BME280;13354;48.174;11.566;2022-11-23T11:29:53;94481.44;;;11.24;53.84
25420;BME280;13354;48.174;11.566;2022-11-23T11:35:28;94482.47;;;10.56;55.09
25420;BME280;13354;48.174;11.566;2022-11-23T11:37:59;94476.06;;;10.45;55.99
25420;BME280;13354;48.174;11.566;2022-11-23T11:40:47;94472.53;;;10.33;56.16
25420;BME280;13354;48.174;11.566;2022-11-23T11:45:54;94464.63;;;11.00;56.39
25420;BME280;13354;48.174;11.566;2022-11-23T11:48:28;94460.63;;;11.39;53.90
25420;BME280;13354;48.174;11.566;2022-11-23T11:51:04;94448.00;;;11.76;53.58
25420;BME280;13354;48.174;11.566;2022-11-23T11:53:35;94446.09;;;11.95;53.16
25420;BME280;13354;48.174;11.566;2022-11-23T11:56:13;94450.47;;;12.01;52.99
25420;BME280;13354;48.174;11.566;2022-11-23T11:58:50;94443.16;;;11.73;51.32
25420;BME280;13354;48.174;11.566;2022-11-23T12:01:41;94446.31;;;11.28;53.73
25420;BME280;13354;48.174;11.566;2022-11-23T12:04:15;94443.78;;;11.33;52.99
25420;BME280;13354;48.174;11.566;2022-11-23T12:07:02;94439.41;;;11.27;53.55
25420;BME280;13354;48.174;11.566;2022-11-23T12:09:33;94440.69;;;11.36;52.26
25420;BME280;13354;48.174;11.566;2022-11-23T12:12:03;94444.84;;;11.02;52.81
25420;BME280;13354;48.174;11.566;2022-11-23T12:14:32;94450.13;;;11.02;51.59
25420;BME280;13354;48.174;11.566;2022-11-23T12:17:10;94445.28;;;10.99;51.17
25420;BME280;13354;48.174;11.566;2022-11-23T12:22:38;94418.66;;;12.01;50.58
25420;BME280;13354;48.174;11.566;2022-11-23T12:25:28;94419.97;;;12.51;49.50
25420;BME280;13354;48.174;11.566;2022-11-23T12:30:45;94423.88;;;13.00;47.11
25420;BME280;13354;48.174;11.566;2022-11-23T12:36:00;94413.50;;;13.44;45.43
25420;BME280;13354;48.174;11.566;2022-11-23T12:38:54;94416.63;;;14.09;44.61
25420;BME280;13354;48.174;11.566;2022-11-23T12:44:02;94413.09;;;14.03;43.90
25420;BME280;13354;48.174;11.566;2022-11-23T12:46:39;94418.41;;;13.86;43.14
25420;BME280;13354;48.174;11.566;2022-11-23T12:51:58;94419.75;;;14.22;42.06
25420;BME280;13354;48.174;11.566;2022-11-23T12:57:45;94416.81;;;14.24;43.08
25420;BME280;13354;48.174;11.566;2022-11-23T13:00:22;94418.81;;;14.50;43.39
25420;BME280;13354;48.174;11.566;2022-11-23T13:06:12;94408.31;;;14.05;43.73
25420;BME280;13354;48.174;11.566;2022-11-23T13:09:03;94419.56;;;13.73;42.58
25420;BME280;13354;48.174;11.566;2022-11-23T13:11:41;94416.56;;;13.08;42.14
25420;BME280;13354;48.174;11.566;2022-11-23T13:14:41;94422.69;;;13.37;43.23
25420;BME280;13354;48.174;11.566;2022-11-23T13:20:09;94421.25;;;13.63;42.30
25420;BME280;13354;48.174;11.566;2022-11-23T13:22:38;94424.44;;;13.31;42.23
25420;BME280;13354;48.174;11.566;2022-11-23T13:27:53;94416.81;;;12.66;44.97
25420;BME280;13354;48.174;11.566;2022-11-23T13:30:37;94431.47;;;12.04;47.04
25420;BME280;13354;48.174;11.566;2022-11-23T13:40:35;94431.00;;;11.30;49.12
25420;BME280;13354;48.174;11.566;2022-11-23T13:45:28;94431.75;;;11.19;49.11
25420;BME280;13354;48.174;11.566;2022-11-23T13:50:56;94421.03;;;11.14;49.43
25420;BME280;13354;48.174;11.566;2022-11-23T13:53:32;94410.09;;;11.10;50.27
25420;BME280;13354;48.174;11.566;2022-11-23T13:56:38;94411.13;;;11.09;50.37
25420;BME280;13354;48.174;11.566;2022-11-23T13:59:31;94402.03;;;11.05;49.77
25420;BME280;13354;48.174;11.566;2022-11-23T14:04:38;94394.13;;;10.87;50.30
25420;BME280;13354;48.174;11.566;2022-11-23T14:09:53;94393.66;;;10.60;51.58
25420;BME280;13354;48.174;11.566;2022-11-23T14:12:28;94402.50;;;10.54;52.15
25420;BME280;13354;48.174;11.566;2022-11-23T14:21:14;94409.72;;;10.28;54.21
25420;BME280;13354;48.174;11.566;2022-11-23T14:24:06;94408.88;;;10.09;55.25
25420;BME280;13354;48.174;11.566;2022-11-23T14:27:07;94407.78;;;9.99;56.08
25420;BME280;13354;48.174;11.566;2022-11-23T14:32:35;94408.88;;;9.91;56.43